Balmaceda, Chile
Current Conditions -  °F | °C
As of 7:00 PM on Thursday 27 Nov 2014 (Local Time) from SCBA Reporting Station
Broken Clouds Broken Clouds  
Wind Chill: 52°   Ceiling: 5000
Heat Index: 52°   Visibility: 6mi
Dew Point: 39°   Wind: 15mph
Humidity: 62%   Direction: 300°WNW
Pressure: 29.74"   Gusts: 28mph
Location:  45.92°S, 71.7°W
Report Text: SCBA 272300Z AUTO 30013G24KT 280V340 9999 BKN050 BKN068 11/04 Q1007
Loading
Personal Weather Stations






























Interactive Weather Map New forecast layout! Learn more

10-Day Weather Forecast

Advertisements
Track Severe Weather on mobile